sensor_id;sensor_type;location;lat;lon;timestamp;P1;durP1;ratioP1;P2;durP2;ratioP2
15905;SDS011;8051;50.820;4.884;2022-11-25T00:00:00;20.40;;;17.53;;
15905;SDS011;8051;50.820;4.884;2022-11-25T00:02:27;20.03;;;15.87;;
15905;SDS011;8051;50.820;4.884;2022-11-25T00:04:54;23.67;;;15.77;;
15905;SDS011;8051;50.820;4.884;2022-11-25T00:07:24;19.23;;;15.47;;
15905;SDS011;8051;50.820;4.884;2022-11-25T00:09:53;23.40;;;17.60;;
15905;SDS011;8051;50.820;4.884;2022-11-25T00:12:20;18.43;;;15.50;;
15905;SDS011;8051;50.820;4.884;2022-11-25T00:14:48;21.93;;;15.97;;
15905;SDS011;8051;50.820;4.884;2022-11-25T00:17:15;17.73;;;16.00;;
15905;SDS011;8051;50.820;4.884;2022-11-25T00:19:42;21.30;;;16.43;;
15905;SDS011;8051;50.820;4.884;2022-11-25T00:22:10;19.83;;;17.03;;
15905;SDS011;8051;50.820;4.884;2022-11-25T00:24:37;20.20;;;16.47;;
15905;SDS011;8051;50.820;4.884;2022-11-25T00:27:05;19.73;;;16.77;;
15905;SDS011;8051;50.820;4.884;2022-11-25T00:29:33;20.17;;;16.47;;
15905;SDS011;8051;50.820;4.884;2022-11-25T00:32:00;18.23;;;16.17;;
15905;SDS011;8051;50.820;4.884;2022-11-25T00:34:28;18.87;;;16.17;;
15905;SDS011;8051;50.820;4.884;2022-11-25T00:36:55;22.23;;;16.13;;
15905;SDS011;8051;50.820;4.884;2022-11-25T00:39:22;26.80;;;16.83;;
15905;SDS011;8051;50.820;4.884;2022-11-25T00:41:51;24.63;;;17.47;;
15905;SDS011;8051;50.820;4.884;2022-11-25T00:44:36;20.80;;;18.00;;
15905;SDS011;8051;50.820;4.884;2022-11-25T00:47:05;19.70;;;17.70;;
15905;SDS011;8051;50.820;4.884;2022-11-25T00:49:33;21.20;;;17.80;;
15905;SDS011;8051;50.820;4.884;2022-11-25T00:52:01;20.70;;;16.87;;
15905;SDS011;8051;50.820;4.884;2022-11-25T00:54:30;20.20;;;17.83;;
15905;SDS011;8051;50.820;4.884;2022-11-25T00:56:57;24.67;;;16.70;;
15905;SDS011;8051;50.820;4.884;2022-11-25T00:59:25;18.83;;;16.93;;
15905;SDS011;8051;50.820;4.884;2022-11-25T01:01:54;18.77;;;16.90;;
15905;SDS011;8051;50.820;4.884;2022-11-25T01:04:22;23.43;;;17.20;;
15905;SDS011;8051;50.820;4.884;2022-11-25T01:06:49;21.03;;;16.97;;
15905;SDS011;8051;50.820;4.884;2022-11-25T01:09:18;17.10;;;15.70;;
15905;SDS011;8051;50.820;4.884;2022-11-25T01:11:46;19.17;;;16.20;;
15905;SDS011;8051;50.820;4.884;2022-11-25T01:14:16;24.43;;;16.97;;
15905;SDS011;8051;50.820;4.884;2022-11-25T01:16:44;21.37;;;16.43;;
15905;SDS011;8051;50.820;4.884;2022-11-25T01:19:13;20.07;;;16.97;;
15905;SDS011;8051;50.820;4.884;2022-11-25T01:21:40;18.17;;;16.37;;
15905;SDS011;8051;50.820;4.884;2022-11-25T01:24:08;20.60;;;18.17;;
15905;SDS011;8051;50.820;4.884;2022-11-25T01:26:37;19.40;;;17.37;;
15905;SDS011;8051;50.820;4.884;2022-11-25T01:29:06;25.20;;;16.93;;
15905;SDS011;8051;50.820;4.884;2022-11-25T01:31:38;26.10;;;16.87;;
15905;SDS011;8051;50.820;4.884;2022-11-25T01:34:05;21.03;;;18.30;;
15905;SDS011;8051;50.820;4.884;2022-11-25T01:36:38;21.00;;;19.27;;
15905;SDS011;8051;50.820;4.884;2022-11-25T01:39:05;25.63;;;23.00;;
15905;SDS011;8051;50.820;4.884;2022-11-25T01:41:33;28.50;;;25.63;;
15905;SDS011;8051;50.820;4.884;2022-11-25T01:44:06;30.23;;;27.27;;
15905;SDS011;8051;50.820;4.884;2022-11-25T01:46:39;31.87;;;28.60;;
15905;SDS011;8051;50.820;4.884;2022-11-25T01:49:13;31.30;;;28.47;;
15905;SDS011;8051;50.820;4.884;2022-11-25T01:51:45;36.40;;;33.17;;
15905;SDS011;8051;50.820;4.884;2022-11-25T01:54:17;29.63;;;26.63;;
15905;SDS011;8051;50.820;4.884;2022-11-25T01:56:48;24.80;;;23.20;;
15905;SDS011;8051;50.820;4.884;2022-11-25T01:59:19;20.53;;;19.13;;
15905;SDS011;8051;50.820;4.884;2022-11-25T02:01:47;18.23;;;16.37;;
15905;SDS011;8051;50.820;4.884;2022-11-25T02:04:15;16.93;;;15.77;;
15905;SDS011;8051;50.820;4.884;2022-11-25T02:06:46;17.20;;;16.20;;
15905;SDS011;8051;50.820;4.884;2022-11-25T02:09:18;16.83;;;15.47;;
15905;SDS011;8051;50.820;4.884;2022-11-25T02:11:48;17.73;;;16.43;;
15905;SDS011;8051;50.820;4.884;2022-11-25T02:14:17;14.97;;;14.17;;
15905;SDS011;8051;50.820;4.884;2022-11-25T02:16:47;16.23;;;15.20;;
15905;SDS011;8051;50.820;4.884;2022-11-25T02:19:16;14.70;;;13.70;;
15905;SDS011;8051;50.820;4.884;2022-11-25T02:21:50;14.77;;;13.70;;
15905;SDS011;8051;50.820;4.884;2022-11-25T02:24:23;14.77;;;13.77;;
15905;SDS011;8051;50.820;4.884;2022-11-25T02:26:58;14.40;;;13.50;;
15905;SDS011;8051;50.820;4.884;2022-11-25T02:29:26;13.73;;;12.93;;
15905;SDS011;8051;50.820;4.884;2022-11-25T02:31:54;13.77;;;12.47;;
15905;SDS011;8051;50.820;4.884;2022-11-25T02:34:21;13.83;;;12.73;;
15905;SDS011;8051;50.820;4.884;2022-11-25T02:36:48;13.70;;;12.80;;
15905;SDS011;8051;50.820;4.884;2022-11-25T02:39:16;14.40;;;13.50;;
15905;SDS011;8051;50.820;4.884;2022-11-25T02:41:46;14.50;;;13.50;;
15905;SDS011;8051;50.820;4.884;2022-11-25T02:44:18;14.23;;;13.37;;
15905;SDS011;8051;50.820;4.884;2022-11-25T02:46:45;14.53;;;13.63;;
15905;SDS011;8051;50.820;4.884;2022-11-25T02:49:13;14.63;;;13.73;;
15905;SDS011;8051;50.820;4.884;2022-11-25T02:51:41;13.37;;;12.23;;
15905;SDS011;8051;50.820;4.884;2022-11-25T02:54:10;15.13;;;13.93;;
15905;SDS011;8051;50.820;4.884;2022-11-25T02:56:38;15.80;;;14.70;;
15905;SDS011;8051;50.820;4.884;2022-11-25T02:59:06;17.27;;;15.43;;
15905;SDS011;8051;50.820;4.884;2022-11-25T03:01:35;17.50;;;16.00;;
15905;SDS011;8051;50.820;4.884;2022-11-25T03:04:03;16.23;;;15.23;;
15905;SDS011;8051;50.820;4.884;2022-11-25T03:06:31;18.23;;;16.60;;
15905;SDS011;8051;50.820;4.884;2022-11-25T03:08:59;16.57;;;15.33;;
15905;SDS011;8051;50.820;4.884;2022-11-25T03:11:26;16.63;;;15.20;;
15905;SDS011;8051;50.820;4.884;2022-11-25T03:14:07;15.57;;;14.07;;
15905;SDS011;8051;50.820;4.884;2022-11-25T03:16:36;16.17;;;14.80;;
15905;SDS011;8051;50.820;4.884;2022-11-25T03:19:03;14.97;;;13.77;;
15905;SDS011;8051;50.820;4.884;2022-11-25T03:21:34;16.53;;;15.20;;
15905;SDS011;8051;50.820;4.884;2022-11-25T03:24:02;16.57;;;14.80;;
15905;SDS011;8051;50.820;4.884;2022-11-25T03:26:29;16.07;;;14.73;;
15905;SDS011;8051;50.820;4.884;2022-11-25T03:29:00;16.00;;;14.50;;
15905;SDS011;8051;50.820;4.884;2022-11-25T03:31:27;17.43;;;16.03;;
15905;SDS011;8051;50.820;4.884;2022-11-25T03:33:56;17.03;;;15.50;;
15905;SDS011;8051;50.820;4.884;2022-11-25T03:36:24;16.33;;;14.83;;
15905;SDS011;8051;50.820;4.884;2022-11-25T03:38:51;17.13;;;15.47;;
15905;SDS011;8051;50.820;4.884;2022-11-25T03:41:18;18.93;;;17.53;;
15905;SDS011;8051;50.820;4.884;2022-11-25T03:43:45;19.03;;;17.53;;
15905;SDS011;8051;50.820;4.884;2022-11-25T03:46:13;19.03;;;17.57;;
15905;SDS011;8051;50.820;4.884;2022-11-25T03:48:40;18.80;;;17.13;;
15905;SDS011;8051;50.820;4.884;2022-11-25T03:51:09;20.50;;;18.77;;
15905;SDS011;8051;50.820;4.884;2022-11-25T03:53:36;18.43;;;17.13;;
15905;SDS011;8051;50.820;4.884;2022-11-25T03:56:04;21.20;;;18.30;;
15905;SDS011;8051;50.820;4.884;2022-11-25T03:58:31;19.77;;;17.83;;
15905;SDS011;8051;50.820;4.884;2022-11-25T04:00:59;16.97;;;15.67;;
15905;SDS011;8051;50.820;4.884;2022-11-25T04:03:27;18.13;;;16.30;;
15905;SDS011;8051;50.820;4.884;2022-11-25T04:05:54;21.30;;;15.50;;
15905;SDS011;8051;50.820;4.884;2022-11-25T04:08:23;17.47;;;15.67;;
15905;SDS011;8051;50.820;4.884;2022-11-25T04:10:52;17.90;;;16.50;;
15905;SDS011;8051;50.820;4.884;2022-11-25T04:13:19;19.10;;;15.27;;
15905;SDS011;8051;50.820;4.884;2022-11-25T04:15:46;18.57;;;14.33;;
15905;SDS011;8051;50.820;4.884;2022-11-25T04:18:17;20.67;;;14.03;;
15905;SDS011;8051;50.820;4.884;2022-11-25T04:20:44;16.87;;;13.50;;
15905;SDS011;8051;50.820;4.884;2022-11-25T04:23:12;22.57;;;14.47;;
15905;SDS011;8051;50.820;4.884;2022-11-25T04:25:41;14.30;;;12.83;;
15905;SDS011;8051;50.820;4.884;2022-11-25T04:28:08;19.10;;;14.13;;
15905;SDS011;8051;50.820;4.884;2022-11-25T04:30:35;14.23;;;12.83;;
15905;SDS011;8051;50.820;4.884;2022-11-25T04:33:03;29.77;;;13.17;;
15905;SDS011;8051;50.820;4.884;2022-11-25T04:35:30;14.60;;;12.37;;
15905;SDS011;8051;50.820;4.884;2022-11-25T04:37:57;21.40;;;13.13;;
15905;SDS011;8051;50.820;4.884;2022-11-25T04:40:25;19.50;;;13.30;;
15905;SDS011;8051;50.820;4.884;2022-11-25T04:42:53;18.60;;;12.43;;
15905;SDS011;8051;50.820;4.884;2022-11-25T04:45:21;14.53;;;11.07;;
15905;SDS011;8051;50.820;4.884;2022-11-25T04:47:48;19.00;;;12.17;;
15905;SDS011;8051;50.820;4.884;2022-11-25T04:50:16;20.77;;;11.77;;
15905;SDS011;8051;50.820;4.884;2022-11-25T04:52:44;15.53;;;11.40;;
15905;SDS011;8051;50.820;4.884;2022-11-25T04:55:11;15.53;;;11.93;;
15905;SDS011;8051;50.820;4.884;2022-11-25T04:57:38;16.50;;;11.47;;
15905;SDS011;8051;50.820;4.884;2022-11-25T05:00:08;19.23;;;13.57;;
15905;SDS011;8051;50.820;4.884;2022-11-25T05:02:35;16.13;;;11.10;;
15905;SDS011;8051;50.820;4.884;2022-11-25T05:05:06;13.27;;;10.77;;
15905;SDS011;8051;50.820;4.884;2022-11-25T05:07:33;19.57;;;10.50;;
15905;SDS011;8051;50.820;4.884;2022-11-25T05:10:00;16.33;;;12.30;;
15905;SDS011;8051;50.820;4.884;2022-11-25T05:12:30;20.77;;;11.73;;
15905;SDS011;8051;50.820;4.884;2022-11-25T05:14:58;15.07;;;12.27;;
15905;SDS011;8051;50.820;4.884;2022-11-25T05:17:27;26.20;;;12.40;;
15905;SDS011;8051;50.820;4.884;2022-11-25T05:19:55;17.43;;;12.37;;
15905;SDS011;8051;50.820;4.884;2022-11-25T05:22:24;15.83;;;10.57;;
15905;SDS011;8051;50.820;4.884;2022-11-25T05:24:53;24.70;;;12.97;;
15905;SDS011;8051;50.820;4.884;2022-11-25T05:27:21;16.10;;;12.17;;
15905;SDS011;8051;50.820;4.884;2022-11-25T05:29:50;26.03;;;12.83;;
15905;SDS011;8051;50.820;4.884;2022-11-25T05:32:17;18.90;;;12.17;;
15905;SDS011;8051;50.820;4.884;2022-11-25T05:34:47;13.73;;;10.47;;
15905;SDS011;8051;50.820;4.884;2022-11-25T05:37:14;22.57;;;12.80;;
15905;SDS011;8051;50.820;4.884;2022-11-25T05:39:42;16.90;;;12.17;;
15905;SDS011;8051;50.820;4.884;2022-11-25T05:42:09;19.07;;;10.23;;
15905;SDS011;8051;50.820;4.884;2022-11-25T05:44:36;13.07;;;11.77;;
15905;SDS011;8051;50.820;4.884;2022-11-25T05:47:03;22.60;;;13.37;;
15905;SDS011;8051;50.820;4.884;2022-11-25T05:49:31;23.63;;;13.13;;
15905;SDS011;8051;50.820;4.884;2022-11-25T05:52:00;14.13;;;11.70;;
15905;SDS011;8051;50.820;4.884;2022-11-25T05:54:27;16.70;;;11.40;;
15905;SDS011;8051;50.820;4.884;2022-11-25T05:56:54;17.60;;;11.10;;
15905;SDS011;8051;50.820;4.884;2022-11-25T05:59:22;20.00;;;12.37;;
15905;SDS011;8051;50.820;4.884;2022-11-25T06:01:51;16.27;;;10.47;;
15905;SDS011;8051;50.820;4.884;2022-11-25T06:04:19;15.57;;;10.67;;
15905;SDS011;8051;50.820;4.884;2022-11-25T06:06:46;18.37;;;11.20;;
15905;SDS011;8051;50.820;4.884;2022-11-25T06:09:15;14.67;;;10.10;;
15905;SDS011;8051;50.820;4.884;2022-11-25T06:11:42;15.87;;;10.50;;
15905;SDS011;8051;50.820;4.884;2022-11-25T06:14:10;13.37;;;12.17;;
15905;SDS011;8051;50.820;4.884;2022-11-25T06:16:39;12.47;;;11.17;;
15905;SDS011;8051;50.820;4.884;2022-11-25T06:19:07;15.87;;;11.90;;
15905;SDS011;8051;50.820;4.884;2022-11-25T06:21:34;23.00;;;12.70;;
15905;SDS011;8051;50.820;4.884;2022-11-25T06:24:02;23.00;;;12.40;;
15905;SDS011;8051;50.820;4.884;2022-11-25T06:26:31;16.20;;;13.23;;
15905;SDS011;8051;50.820;4.884;2022-11-25T06:28:59;17.73;;;13.20;;
15905;SDS011;8051;50.820;4.884;2022-11-25T06:31:26;22.53;;;14.83;;
15905;SDS011;8051;50.820;4.884;2022-11-25T06:33:54;19.43;;;12.40;;
15905;SDS011;8051;50.820;4.884;2022-11-25T06:36:21;24.90;;;13.77;;
15905;SDS011;8051;50.820;4.884;2022-11-25T06:38:50;12.67;;;11.23;;
15905;SDS011;8051;50.820;4.884;2022-11-25T06:41:19;17.37;;;13.03;;
15905;SDS011;8051;50.820;4.884;2022-11-25T06:43:48;16.57;;;14.00;;
15905;SDS011;8051;50.820;4.884;2022-11-25T06:46:16;17.43;;;12.77;;
15905;SDS011;8051;50.820;4.884;2022-11-25T06:48:45;20.40;;;13.10;;
15905;SDS011;8051;50.820;4.884;2022-11-25T06:51:12;16.47;;;12.83;;
15905;SDS011;8051;50.820;4.884;2022-11-25T06:53:41;20.83;;;12.27;;
15905;SDS011;8051;50.820;4.884;2022-11-25T06:56:10;15.37;;;11.90;;
15905;SDS011;8051;50.820;4.884;2022-11-25T06:58:39;24.90;;;12.87;;
15905;SDS011;8051;50.820;4.884;2022-11-25T07:01:11;19.27;;;13.47;;
15905;SDS011;8051;50.820;4.884;2022-11-25T07:03:39;22.77;;;14.43;;
15905;SDS011;8051;50.820;4.884;2022-11-25T07:06:07;27.27;;;12.80;;
15905;SDS011;8051;50.820;4.884;2022-11-25T07:08:40;19.03;;;12.93;;
15905;SDS011;8051;50.820;4.884;2022-11-25T07:11:09;18.20;;;12.40;;
15905;SDS011;8051;50.820;4.884;2022-11-25T07:13:41;16.00;;;11.17;;
15905;SDS011;8051;50.820;4.884;2022-11-25T07:16:11;15.47;;;10.60;;
15905;SDS011;8051;50.820;4.884;2022-11-25T07:18:39;21.40;;;12.17;;
15905;SDS011;8051;50.820;4.884;2022-11-25T07:21:08;21.40;;;13.33;;
15905;SDS011;8051;50.820;4.884;2022-11-25T07:23:37;18.40;;;11.73;;
15905;SDS011;8051;50.820;4.884;2022-11-25T07:26:06;20.57;;;11.77;;
15905;SDS011;8051;50.820;4.884;2022-11-25T07:28:34;23.00;;;11.43;;
15905;SDS011;8051;50.820;4.884;2022-11-25T07:31:03;22.40;;;11.60;;
15905;SDS011;8051;50.820;4.884;2022-11-25T07:33:33;26.83;;;13.00;;
15905;SDS011;8051;50.820;4.884;2022-11-25T07:36:01;29.57;;;12.77;;
15905;SDS011;8051;50.820;4.884;2022-11-25T07:38:32;15.17;;;11.73;;
15905;SDS011;8051;50.820;4.884;2022-11-25T07:41:04;27.50;;;12.90;;
15905;SDS011;8051;50.820;4.884;2022-11-25T07:43:33;21.17;;;11.27;;
15905;SDS011;8051;50.820;4.884;2022-11-25T07:46:10;20.73;;;12.20;;
15905;SDS011;8051;50.820;4.884;2022-11-25T07:48:41;20.93;;;11.07;;
15905;SDS011;8051;50.820;4.884;2022-11-25T07:51:15;19.27;;;11.47;;
15905;SDS011;8051;50.820;4.884;2022-11-25T07:53:44;25.30;;;13.17;;
15905;SDS011;8051;50.820;4.884;2022-11-25T07:56:12;21.30;;;11.47;;
15905;SDS011;8051;50.820;4.884;2022-11-25T07:58:41;24.73;;;11.87;;
15905;SDS011;8051;50.820;4.884;2022-11-25T08:01:09;22.60;;;11.50;;
15905;SDS011;8051;50.820;4.884;2022-11-25T08:03:41;15.63;;;12.33;;
15905;SDS011;8051;50.820;4.884;2022-11-25T08:06:12;17.23;;;12.13;;
15905;SDS011;8051;50.820;4.884;2022-11-25T08:08:41;18.50;;;12.83;;
15905;SDS011;8051;50.820;4.884;2022-11-25T08:11:09;19.27;;;13.07;;
15905;SDS011;8051;50.820;4.884;2022-11-25T08:13:38;18.30;;;11.40;;
15905;SDS011;8051;50.820;4.884;2022-11-25T08:16:06;22.57;;;11.93;;
15905;SDS011;8051;50.820;4.884;2022-11-25T08:18:34;18.07;;;11.77;;
15905;SDS011;8051;50.820;4.884;2022-11-25T08:21:04;22.13;;;11.73;;
15905;SDS011;8051;50.820;4.884;2022-11-25T08:23:33;21.30;;;12.30;;
15905;SDS011;8051;50.820;4.884;2022-11-25T08:26:02;29.37;;;12.33;;
15905;SDS011;8051;50.820;4.884;2022-11-25T08:28:30;26.67;;;13.63;;
15905;SDS011;8051;50.820;4.884;2022-11-25T08:31:00;28.93;;;14.20;;
15905;SDS011;8051;50.820;4.884;2022-11-25T08:33:29;27.17;;;13.47;;
15905;SDS011;8051;50.820;4.884;2022-11-25T08:35:56;35.17;;;13.53;;
15905;SDS011;8051;50.820;4.884;2022-11-25T08:38:26;14.60;;;11.30;;
15905;SDS011;8051;50.820;4.884;2022-11-25T08:40:54;16.50;;;10.70;;
15905;SDS011;8051;50.820;4.884;2022-11-25T08:43:22;14.83;;;11.83;;
15905;SDS011;8051;50.820;4.884;2022-11-25T08:45:50;21.47;;;12.33;;
15905;SDS011;8051;50.820;4.884;2022-11-25T08:48:18;23.60;;;11.90;;
15905;SDS011;8051;50.820;4.884;2022-11-25T08:50:47;22.90;;;11.70;;
15905;SDS011;8051;50.820;4.884;2022-11-25T08:53:17;22.80;;;12.13;;
15905;SDS011;8051;50.820;4.884;2022-11-25T08:55:47;25.13;;;12.40;;
15905;SDS011;8051;50.820;4.884;2022-11-25T08:58:14;23.97;;;11.13;;
15905;SDS011;8051;50.820;4.884;2022-11-25T09:00:42;19.33;;;12.30;;
15905;SDS011;8051;50.820;4.884;2022-11-25T09:03:10;20.03;;;11.93;;
15905;SDS011;8051;50.820;4.884;2022-11-25T09:05:38;29.90;;;11.90;;
15905;SDS011;8051;50.820;4.884;2022-11-25T09:08:07;18.67;;;12.13;;
15905;SDS011;8051;50.820;4.884;2022-11-25T09:10:36;18.63;;;10.80;;
15905;SDS011;8051;50.820;4.884;2022-11-25T09:13:06;20.67;;;12.63;;
15905;SDS011;8051;50.820;4.884;2022-11-25T09:15:34;19.10;;;12.60;;
15905;SDS011;8051;50.820;4.884;2022-11-25T09:18:03;21.60;;;11.60;;
15905;SDS011;8051;50.820;4.884;2022-11-25T09:20:32;32.43;;;12.43;;
15905;SDS011;8051;50.820;4.884;2022-11-25T09:23:00;22.17;;;12.40;;
15905;SDS011;8051;50.820;4.884;2022-11-25T09:25:28;21.03;;;12.57;;
15905;SDS011;8051;50.820;4.884;2022-11-25T09:27:56;24.33;;;12.37;;
15905;SDS011;8051;50.820;4.884;2022-11-25T09:30:25;18.47;;;11.90;;
15905;SDS011;8051;50.820;4.884;2022-11-25T09:32:53;21.30;;;12.30;;
15905;SDS011;8051;50.820;4.884;2022-11-25T09:35:21;22.60;;;12.27;;
15905;SDS011;8051;50.820;4.884;2022-11-25T09:37:49;17.93;;;12.20;;
15905;SDS011;8051;50.820;4.884;2022-11-25T09:40:17;17.33;;;11.60;;
15905;SDS011;8051;50.820;4.884;2022-11-25T09:42:48;28.27;;;11.93;;
15905;SDS011;8051;50.820;4.884;2022-11-25T09:45:42;21.30;;;13.67;;
15905;SDS011;8051;50.820;4.884;2022-11-25T09:48:37;17.60;;;11.67;;
15905;SDS011;8051;50.820;4.884;2022-11-25T09:51:16;19.37;;;12.10;;
15905;SDS011;8051;50.820;4.884;2022-11-25T09:53:47;15.73;;;12.27;;
15905;SDS011;8051;50.820;4.884;2022-11-25T09:56:20;16.60;;;12.13;;
15905;SDS011;8051;50.820;4.884;2022-11-25T09:58:56;13.30;;;11.93;;
15905;SDS011;8051;50.820;4.884;2022-11-25T10:01:28;17.70;;;11.43;;
15905;SDS011;8051;50.820;4.884;2022-11-25T10:03:59;16.90;;;11.97;;
15905;SDS011;8051;50.820;4.884;2022-11-25T10:06:30;13.70;;;10.60;;
15905;SDS011;8051;50.820;4.884;2022-11-25T10:09:00;16.53;;;10.83;;
15905;SDS011;8051;50.820;4.884;2022-11-25T10:11:33;14.23;;;10.90;;
15905;SDS011;8051;50.820;4.884;2022-11-25T10:14:11;18.60;;;11.30;;
15905;SDS011;8051;50.820;4.884;2022-11-25T10:16:46;13.37;;;12.10;;
15905;SDS011;8051;50.820;4.884;2022-11-25T10:19:21;18.30;;;12.27;;
15905;SDS011;8051;50.820;4.884;2022-11-25T10:21:55;13.57;;;11.57;;
15905;SDS011;8051;50.820;4.884;2022-11-25T10:24:23;16.33;;;12.33;;
15905;SDS011;8051;50.820;4.884;2022-11-25T10:26:52;17.13;;;12.07;;
15905;SDS011;8051;50.820;4.884;2022-11-25T10:29:29;13.70;;;12.50;;
15905;SDS011;8051;50.820;4.884;2022-11-25T10:32:03;16.40;;;13.40;;
15905;SDS011;8051;50.820;4.884;2022-11-25T10:34:44;15.60;;;14.10;;
15905;SDS011;8051;50.820;4.884;2022-11-25T10:37:16;16.10;;;14.13;;
15905;SDS011;8051;50.820;4.884;2022-11-25T10:39:52;15.13;;;13.53;;
15905;SDS011;8051;50.820;4.884;2022-11-25T10:42:20;16.00;;;14.13;;
15905;SDS011;8051;50.820;4.884;2022-11-25T10:44:49;14.20;;;13.17;;
15905;SDS011;8051;50.820;4.884;2022-11-25T10:50:14;14.47;;;13.27;;
15905;SDS011;8051;50.820;4.884;2022-11-25T10:52:47;14.80;;;13.53;;
15905;SDS011;8051;50.820;4.884;2022-11-25T10:55:21;16.07;;;13.67;;
15905;SDS011;8051;50.820;4.884;2022-11-25T10:57:50;13.50;;;12.40;;
15905;SDS011;8051;50.820;4.884;2022-11-25T11:00:23;14.70;;;13.50;;
15905;SDS011;8051;50.820;4.884;2022-11-25T11:03:12;15.53;;;14.23;;
15905;SDS011;8051;50.820;4.884;2022-11-25T11:05:44;15.83;;;14.27;;
15905;SDS011;8051;50.820;4.884;2022-11-25T11:08:17;14.47;;;13.40;;
15905;SDS011;8051;50.820;4.884;2022-11-25T11:10:46;14.90;;;13.37;;
15905;SDS011;8051;50.820;4.884;2022-11-25T11:13:33;15.70;;;14.47;;
15905;SDS011;8051;50.820;4.884;2022-11-25T11:16:01;15.40;;;14.07;;
15905;SDS011;8051;50.820;4.884;2022-11-25T11:18:38;15.37;;;14.40;;
15905;SDS011;8051;50.820;4.884;2022-11-25T11:21:19;15.97;;;14.77;;
15905;SDS011;8051;50.820;4.884;2022-11-25T11:23:49;14.30;;;13.40;;
15905;SDS011;8051;50.820;4.884;2022-11-25T11:26:20;13.27;;;12.10;;
15905;SDS011;8051;50.820;4.884;2022-11-25T11:28:56;14.57;;;13.43;;
15905;SDS011;8051;50.820;4.884;2022-11-25T11:31:30;14.87;;;13.90;;
15905;SDS011;8051;50.820;4.884;2022-11-25T11:34:12;15.50;;;14.40;;
15905;SDS011;8051;50.820;4.884;2022-11-25T11:36:54;14.20;;;13.20;;
15905;SDS011;8051;50.820;4.884;2022-11-25T11:39:49;15.07;;;13.90;;
15905;SDS011;8051;50.820;4.884;2022-11-25T11:42:28;15.10;;;13.27;;
15905;SDS011;8051;50.820;4.884;2022-11-25T11:45:10;16.20;;;14.97;;
15905;SDS011;8051;50.820;4.884;2022-11-25T11:47:52;17.00;;;15.40;;
15905;SDS011;8051;50.820;4.884;2022-11-25T11:50:36;18.13;;;16.53;;
15905;SDS011;8051;50.820;4.884;2022-11-25T11:53:12;18.13;;;14.97;;
15905;SDS011;8051;50.820;4.884;2022-11-25T11:55:52;15.40;;;14.03;;
15905;SDS011;8051;50.820;4.884;2022-11-25T12:04:10;16.50;;;14.57;;
15905;SDS011;8051;50.820;4.884;2022-11-25T12:06:48;18.83;;;14.77;;
15905;SDS011;8051;50.820;4.884;2022-11-25T12:09:26;14.77;;;13.90;;
15905;SDS011;8051;50.820;4.884;2022-11-25T12:11:58;15.90;;;14.30;;
15905;SDS011;8051;50.820;4.884;2022-11-25T12:14:31;15.20;;;13.90;;
15905;SDS011;8051;50.820;4.884;2022-11-25T12:17:06;15.50;;;14.23;;
15905;SDS011;8051;50.820;4.884;2022-11-25T12:19:43;15.97;;;14.43;;
15905;SDS011;8051;50.820;4.884;2022-11-25T12:22:18;15.63;;;14.53;;
15905;SDS011;8051;50.820;4.884;2022-11-25T12:24:52;14.60;;;13.40;;
15905;SDS011;8051;50.820;4.884;2022-11-25T12:27:28;15.40;;;14.00;;
15905;SDS011;8051;50.820;4.884;2022-11-25T12:30:03;14.43;;;13.10;;
15905;SDS011;8051;50.820;4.884;2022-11-25T12:32:38;15.33;;;13.97;;
15905;SDS011;8051;50.820;4.884;2022-11-25T12:35:19;15.40;;;14.17;;
15905;SDS011;8051;50.820;4.884;2022-11-25T12:37:55;16.73;;;15.17;;
15905;SDS011;8051;50.820;4.884;2022-11-25T12:40:32;15.90;;;14.60;;
15905;SDS011;8051;50.820;4.884;2022-11-25T12:43:05;17.40;;;15.93;;
15905;SDS011;8051;50.820;4.884;2022-11-25T12:45:43;15.67;;;14.40;;
15905;SDS011;8051;50.820;4.884;2022-11-25T12:48:17;16.97;;;15.37;;
15905;SDS011;8051;50.820;4.884;2022-11-25T12:50:48;19.73;;;15.87;;
15905;SDS011;8051;50.820;4.884;2022-11-25T12:53:25;17.00;;;14.73;;
15905;SDS011;8051;50.820;4.884;2022-11-25T12:56:01;16.67;;;15.13;;
15905;SDS011;8051;50.820;4.884;2022-11-25T12:58:40;17.70;;;15.97;;
15905;SDS011;8051;50.820;4.884;2022-11-25T13:04:17;18.20;;;16.37;;
15905;SDS011;8051;50.820;4.884;2022-11-25T13:07:28;18.90;;;16.07;;
15905;SDS011;8051;50.820;4.884;2022-11-25T13:13:09;17.57;;;15.90;;
15905;SDS011;8051;50.820;4.884;2022-11-25T13:15:50;18.10;;;16.43;;
15905;SDS011;8051;50.820;4.884;2022-11-25T13:18:19;18.10;;;16.30;;
15905;SDS011;8051;50.820;4.884;2022-11-25T13:20:49;18.27;;;16.87;;
15905;SDS011;8051;50.820;4.884;2022-11-25T13:23:25;18.50;;;15.90;;
15905;SDS011;8051;50.820;4.884;2022-11-25T13:28:58;17.10;;;15.43;;
15905;SDS011;8051;50.820;4.884;2022-11-25T13:31:29;16.17;;;14.60;;
15905;SDS011;8051;50.820;4.884;2022-11-25T13:34:02;19.43;;;17.50;;
15905;SDS011;8051;50.820;4.884;2022-11-25T13:36:43;17.27;;;15.77;;
15905;SDS011;8051;50.820;4.884;2022-11-25T13:39:12;18.10;;;16.40;;
15905;SDS011;8051;50.820;4.884;2022-11-25T13:41:43;19.67;;;15.17;;
15905;SDS011;8051;50.820;4.884;2022-11-25T13:44:17;19.60;;;16.87;;
15905;SDS011;8051;50.820;4.884;2022-11-25T13:46:48;17.40;;;15.73;;
15905;SDS011;8051;50.820;4.884;2022-11-25T13:49:27;17.40;;;15.90;;
15905;SDS011;8051;50.820;4.884;2022-11-25T13:52:01;17.40;;;15.43;;
15905;SDS011;8051;50.820;4.884;2022-11-25T13:54:32;18.57;;;16.83;;
15905;SDS011;8051;50.820;4.884;2022-11-25T13:57:16;17.50;;;16.30;;
15905;SDS011;8051;50.820;4.884;2022-11-25T13:59:57;18.27;;;16.87;;
15905;SDS011;8051;50.820;4.884;2022-11-25T14:02:31;19.53;;;16.70;;
15905;SDS011;8051;50.820;4.884;2022-11-25T14:08:19;24.23;;;17.13;;
15905;SDS011;8051;50.820;4.884;2022-11-25T14:11:20;17.97;;;16.50;;
15905;SDS011;8051;50.820;4.884;2022-11-25T14:14:12;19.63;;;17.77;;
15905;SDS011;8051;50.820;4.884;2022-11-25T14:17:02;25.13;;;17.70;;
15905;SDS011;8051;50.820;4.884;2022-11-25T14:20:05;19.30;;;16.90;;
15905;SDS011;8051;50.820;4.884;2022-11-25T14:22:58;20.10;;;18.10;;
15905;SDS011;8051;50.820;4.884;2022-11-25T14:26:02;19.43;;;17.40;;
15905;SDS011;8051;50.820;4.884;2022-11-25T14:28:34;20.23;;;16.30;;
15905;SDS011;8051;50.820;4.884;2022-11-25T14:31:10;18.77;;;16.67;;
15905;SDS011;8051;50.820;4.884;2022-11-25T14:33:47;20.67;;;17.97;;
15905;SDS011;8051;50.820;4.884;2022-11-25T14:36:18;18.70;;;16.73;;
15905;SDS011;8051;50.820;4.884;2022-11-25T14:38:52;18.70;;;16.77;;
15905;SDS011;8051;50.820;4.884;2022-11-25T14:41:25;17.83;;;16.17;;
15905;SDS011;8051;50.820;4.884;2022-11-25T14:44:03;20.47;;;17.33;;
15905;SDS011;8051;50.820;4.884;2022-11-25T14:46:39;20.50;;;17.53;;
15905;SDS011;8051;50.820;4.884;2022-11-25T14:49:18;20.17;;;18.27;;
15905;SDS011;8051;50.820;4.884;2022-11-25T14:51:47;19.10;;;17.23;;
15905;SDS011;8051;50.820;4.884;2022-11-25T14:54:16;20.83;;;18.80;;
15905;SDS011;8051;50.820;4.884;2022-11-25T14:56:43;21.50;;;19.07;;
15905;SDS011;8051;50.820;4.884;2022-11-25T14:59:13;24.47;;;18.90;;
15905;SDS011;8051;50.820;4.884;2022-11-25T15:01:49;22.33;;;19.13;;
15905;SDS011;8051;50.820;4.884;2022-11-25T15:04:20;28.23;;;19.27;;
15905;SDS011;8051;50.820;4.884;2022-11-25T15:06:50;22.07;;;19.17;;
15905;SDS011;8051;50.820;4.884;2022-11-25T15:09:21;20.43;;;18.27;;
15905;SDS011;8051;50.820;4.884;2022-11-25T15:11:51;22.33;;;18.90;;
15905;SDS011;8051;50.820;4.884;2022-11-25T15:14:23;28.47;;;18.30;;
15905;SDS011;8051;50.820;4.884;2022-11-25T15:16:52;26.00;;;19.60;;